createdAt,value
2019-03-24T00:01:17.246Z,102404.98
2019-03-24T00:03:45.800Z,102407.78
2019-03-24T00:06:14.314Z,102417.95
2019-03-24T00:08:42.830Z,102411.81
2019-03-24T00:11:11.332Z,102412.91
2019-03-24T00:13:39.699Z,102406.98
2019-03-24T00:16:08.259Z,102407.47
2019-03-24T00:18:37.396Z,102410.81
2019-03-24T00:21:05.881Z,102409.35
2019-03-24T00:23:34.668Z,102414.25
2019-03-24T00:26:03.555Z,102415.28
2019-03-24T00:28:31.954Z,102414.79
2019-03-24T00:31:00.622Z,102421.58
2019-03-24T00:33:29.106Z,102423.17
2019-03-24T00:35:57.608Z,102422.32
2019-03-24T00:38:26.301Z,102420.66
2019-03-24T00:40:54.865Z,102417.70
2019-03-24T00:43:23.468Z,102422.07
2019-03-24T00:45:52.548Z,102418.06
2019-03-24T00:48:21.122Z,102417.70
2019-03-24T00:50:49.570Z,102413.71
2019-03-24T00:53:18.005Z,102415.66
2019-03-24T00:55:46.552Z,102422.00
2019-03-24T00:58:14.991Z,102418.00
2019-03-24T01:01:03.203Z,102419.58
2019-03-24T01:03:31.659Z,102418.61
2019-03-24T01:06:01.856Z,102423.94
2019-03-24T01:08:30.366Z,102419.22
2019-03-24T01:10:58.772Z,102416.80
2019-03-24T01:13:27.555Z,102416.55
2019-03-24T01:15:56.196Z,102412.91
2019-03-24T01:18:24.572Z,102412.66
2019-03-24T01:20:52.979Z,102405.89
2019-03-24T01:23:22.040Z,102409.76
2019-03-24T01:25:50.545Z,102404.80
2019-03-24T01:28:18.944Z,102404.01
2019-03-24T01:30:47.650Z,102401.39
2019-03-24T01:33:16.182Z,102403.81
2019-03-24T01:35:44.653Z,102402.66
2019-03-24T01:38:13.095Z,102401.97
2019-03-24T01:40:41.544Z,102399.19
2019-03-24T01:43:10.099Z,102394.47
2019-03-24T01:45:38.607Z,102395.95
2019-03-24T01:48:07.169Z,102388.70
2019-03-24T01:50:35.746Z,102392.81
2019-03-24T01:53:04.254Z,102393.34
2019-03-24T01:58:11.836Z,102386.97
2019-03-24T02:00:40.370Z,102389.91
2019-03-24T02:03:08.759Z,102390.88
2019-03-24T02:05:37.265Z,102390.56
2019-03-24T02:08:05.811Z,102390.35
2019-03-24T02:10:34.490Z,102385.27
2019-03-24T02:13:03.064Z,102382.24
2019-03-24T02:15:31.905Z,102380.91
2019-03-24T02:18:00.349Z,102374.12
2019-03-24T02:20:28.776Z,102379.86
2019-03-24T02:22:57.215Z,102377.55
2019-03-24T02:25:25.581Z,102380.73
2019-03-24T02:28:13.336Z,102377.92
2019-03-24T02:30:41.745Z,102374.20
2019-03-24T02:33:10.194Z,102373.84
2019-03-24T02:35:38.566Z,102374.72
2019-03-24T02:38:06.964Z,102367.81
2019-03-24T02:40:35.532Z,102368.70
2019-03-24T02:43:04.051Z,102367.00
2019-03-24T02:45:32.508Z,102373.17
2019-03-24T02:48:01.063Z,102371.84
2019-03-24T02:50:29.575Z,102375.14
2019-03-24T02:52:58.401Z,102370.30
2019-03-24T02:55:26.825Z,102360.16
2019-03-24T02:57:55.321Z,102362.58
2019-03-24T03:00:23.885Z,102359.67
2019-03-24T03:02:52.464Z,102361.61
2019-03-24T03:05:20.990Z,102360.69
2019-03-24T03:07:49.545Z,102362.52
2019-03-24T03:10:18.263Z,102359.16
2019-03-24T03:12:47.835Z,102365.19
2019-03-24T03:15:16.842Z,102365.19
2019-03-24T03:17:45.304Z,102366.28
2019-03-24T03:20:53.759Z,102366.76
2019-03-24T03:23:22.152Z,102367.97
2019-03-24T03:25:50.657Z,102362.77
2019-03-24T03:28:19.161Z,102368.69
2019-03-24T03:30:47.599Z,102363.48
2019-03-24T03:33:16.109Z,102367.86
2019-03-24T03:35:44.550Z,102356.23
2019-03-24T03:38:13.048Z,102363.62
2019-03-24T03:40:41.450Z,102363.38
2019-03-24T03:43:09.919Z,102365.20
2019-03-24T03:48:46.607Z,102364.36
2019-03-24T03:51:15.027Z,102364.59
2019-03-24T03:53:43.430Z,102362.92
2019-03-24T03:56:12.173Z,102358.21
2019-03-24T03:58:40.958Z,102355.78
2019-03-24T04:01:09.436Z,102352.54
2019-03-24T04:03:37.864Z,102347.81
2019-03-24T04:06:06.400Z,102351.58
2019-03-24T04:08:34.764Z,102338.40
2019-03-24T04:11:03.141Z,102342.02
2019-03-24T04:13:31.530Z,102348.66
2019-03-24T04:15:59.957Z,102338.89
2019-03-24T04:18:28.723Z,102345.88
2019-03-24T04:20:57.241Z,102336.34
2019-03-24T04:23:26.095Z,102332.48
2019-03-24T04:25:54.535Z,102336.58
2019-03-24T04:28:23.104Z,102337.55
2019-03-24T04:30:51.647Z,102335.51
2019-03-24T04:33:20.216Z,102336.11
2019-03-24T04:35:48.651Z,102337.55
2019-03-24T04:38:17.058Z,102334.53
2019-03-24T04:40:45.505Z,102339.84
2019-03-24T04:43:14.007Z,102345.27
2019-03-24T04:45:42.537Z,102339.95
2019-03-24T04:48:11.090Z,102339.95
2019-03-24T04:50:39.909Z,102340.47
2019-03-24T04:53:08.359Z,102337.67
2019-03-24T04:55:37.182Z,102331.87
2019-03-24T04:58:05.702Z,102336.83
2019-03-24T05:01:14.155Z,102333.20
2019-03-24T05:03:42.599Z,102331.03
2019-03-24T05:06:11.223Z,102324.25
2019-03-24T05:08:39.765Z,102324.14
2019-03-24T05:11:08.250Z,102325.73
2019-03-24T05:13:37.012Z,102331.04
2019-03-24T05:16:05.459Z,102320.75
2019-03-24T05:18:33.916Z,102328.61
2019-03-24T05:21:02.375Z,102329.20
2019-03-24T05:23:30.772Z,102327.28
2019-03-24T05:25:59.212Z,102330.16
2019-03-24T05:28:28.104Z,102323.67
2019-03-24T05:30:56.542Z,102325.59
2019-03-24T05:33:24.958Z,102323.41
2019-03-24T05:35:53.406Z,102327.03
2019-03-24T05:38:21.789Z,102326.44
2019-03-24T05:40:50.207Z,102326.80
2019-03-24T05:43:18.566Z,102320.53
2019-03-24T05:46:26.990Z,102320.53
2019-03-24T05:48:55.386Z,102324.63
2019-03-24T05:51:23.775Z,102324.73
2019-03-24T05:53:52.158Z,102320.87
2019-03-24T05:56:20.580Z,102319.91
2019-03-24T05:58:48.932Z,102328.73
2019-03-24T06:01:17.793Z,102332.11
2019-03-24T06:03:46.214Z,102327.77
2019-03-24T06:06:14.584Z,102325.95
2019-03-24T06:08:43.064Z,102317.98
2019-03-24T06:11:11.567Z,102318.09
2019-03-24T06:14:20.360Z,102320.63
2019-03-24T06:16:48.835Z,102317.64
2019-03-24T06:19:17.520Z,102316.05
2019-03-24T06:21:45.903Z,102309.53
2019-03-24T06:24:14.364Z,102312.55
2019-03-24T06:26:42.800Z,102308.56
2019-03-24T06:29:11.865Z,102296.01
2019-03-24T06:31:40.364Z,102299.63
2019-03-24T06:34:08.942Z,102299.36
2019-03-24T06:36:37.395Z,102303.11
2019-03-24T06:39:45.821Z,102299.80
2019-03-24T06:42:14.519Z,102297.34
2019-03-24T06:44:42.987Z,102295.81
2019-03-24T06:47:11.388Z,102296.20
2019-03-24T06:49:39.876Z,102294.45
2019-03-24T06:52:08.475Z,102295.08
2019-03-24T06:54:37.011Z,102291.46
2019-03-24T06:57:05.428Z,102297.83
2019-03-24T06:59:33.869Z,102292.95
2019-03-24T07:02:02.368Z,102296.53
2019-03-24T07:04:30.863Z,102296.70
2019-03-24T07:06:59.543Z,102299.92
2019-03-24T07:09:28.084Z,102295.66
2019-03-24T07:11:56.745Z,102292.77
2019-03-24T07:14:25.230Z,102292.05
2019-03-24T07:16:53.641Z,102288.22
2019-03-24T07:19:22.185Z,102291.09
2019-03-24T07:21:50.570Z,102291.70
2019-03-24T07:24:18.975Z,102290.20
2019-03-24T07:26:47.403Z,102290.88
2019-03-24T07:29:16.296Z,102290.23
2019-03-24T07:31:44.896Z,102290.27
2019-03-24T07:34:13.369Z,102288.89
2019-03-24T07:36:41.749Z,102292.23
2019-03-24T07:39:10.140Z,102287.00
2019-03-24T07:41:38.624Z,102286.24
2019-03-24T07:44:07.162Z,102278.53
2019-03-24T07:46:35.859Z,102278.58
2019-03-24T07:49:04.338Z,102278.11
2019-03-24T07:51:32.882Z,102272.55
2019-03-24T07:54:01.405Z,102279.87
2019-03-24T07:56:30.227Z,102281.98
2019-03-24T07:58:58.746Z,102283.48
2019-03-24T08:01:27.395Z,102277.52
2019-03-24T08:03:56.178Z,102277.86
2019-03-24T08:06:24.699Z,102282.27
2019-03-24T08:08:53.460Z,102286.48
2019-03-24T08:11:22.038Z,102289.76
2019-03-24T08:13:54.076Z,102283.84
2019-03-24T08:16:20.642Z,102283.24
2019-03-24T08:18:49.124Z,102277.10
2019-03-24T08:21:17.678Z,102271.00
2019-03-24T08:23:46.206Z,102272.13
2019-03-24T08:26:14.995Z,102264.74
2019-03-24T08:28:43.432Z,102263.84
2019-03-24T08:31:12.357Z,102266.27
2019-03-24T08:33:40.828Z,102254.33
2019-03-24T08:36:09.491Z,102251.13
2019-03-24T08:38:38.096Z,102233.75
2019-03-24T08:41:06.718Z,102224.73
2019-03-24T08:43:35.235Z,102231.97
2019-03-24T08:46:03.791Z,102227.05
2019-03-24T08:48:40.485Z,102219.05
2019-03-24T08:51:02.792Z,102215.33
2019-03-24T08:53:32.074Z,102213.80
2019-03-24T08:56:00.680Z,102218.25
2019-03-24T08:58:29.440Z,102210.36
2019-03-24T09:00:58.028Z,102212.70
2019-03-24T09:03:26.643Z,102211.04
2019-03-24T09:05:55.345Z,102205.42
2019-03-24T09:08:24.033Z,102202.41
2019-03-24T09:10:52.664Z,102198.16
2019-03-24T09:13:21.159Z,102190.14
2019-03-24T09:18:57.875Z,102179.13
2019-03-24T09:21:26.349Z,102172.61
2019-03-24T09:23:55.252Z,102175.05
2019-03-24T09:26:23.735Z,102168.89
2019-03-24T09:28:52.194Z,102170.59
2019-03-24T09:31:20.683Z,102168.60
2019-03-24T09:33:49.675Z,102161.41
2019-03-24T09:36:18.791Z,102156.13
2019-03-24T09:38:47.380Z,102158.83
2019-03-24T09:41:15.934Z,102158.30
2019-03-24T09:43:44.489Z,102156.03
2019-03-24T09:46:12.938Z,102150.98
2019-03-24T09:48:41.691Z,102149.66
2019-03-24T09:51:10.304Z,102148.45
2019-03-24T09:53:39.167Z,102141.47
2019-03-24T09:56:07.719Z,102144.48
2019-03-24T09:58:36.231Z,102149.37
2019-03-24T10:01:05.137Z,102140.73
2019-03-24T10:03:33.688Z,102134.43
2019-03-24T10:06:02.285Z,102140.59
2019-03-24T10:08:30.750Z,102137.67
2019-03-24T10:10:59.183Z,102131.95
2019-03-24T10:13:27.642Z,102126.98
2019-03-24T10:15:56.532Z,102132.75
2019-03-24T10:18:24.963Z,102125.09
2019-03-24T10:20:53.424Z,102118.84
2019-03-24T10:23:21.906Z,102106.67
2019-03-24T10:25:50.380Z,102102.26
2019-03-24T10:28:58.842Z,102101.51
2019-03-24T10:31:27.571Z,102090.63
2019-03-24T10:33:56.030Z,102090.16
2019-03-24T10:36:24.591Z,102085.28
2019-03-24T10:41:48.076Z,102093.22
2019-03-24T10:44:28.897Z,102092.42
2019-03-24T10:46:47.197Z,102090.99
2019-03-24T10:49:24.426Z,102081.52
2019-03-24T10:51:46.370Z,102084.76
2019-03-24T10:54:14.877Z,102076.40
2019-03-24T10:56:43.322Z,102069.84
2019-03-24T10:59:11.710Z,102070.45
2019-03-24T11:01:40.237Z,102062.39
2019-03-24T11:04:48.671Z,102050.97
2019-03-24T11:07:17.213Z,102039.45
2019-03-24T11:09:45.690Z,102037.88
2019-03-24T11:12:14.173Z,102036.00
2019-03-24T11:14:42.712Z,102034.25
2019-03-24T11:17:11.221Z,102029.31
2019-03-24T11:19:40.006Z,102025.70
2019-03-24T11:22:08.631Z,102021.61
2019-03-24T11:24:37.268Z,102015.22
2019-03-24T11:27:05.875Z,102016.45
2019-03-24T11:29:34.392Z,102010.59
2019-03-24T11:32:02.966Z,102005.70
2019-03-24T11:34:50.889Z,102006.97
2019-03-24T11:37:19.398Z,101998.13
2019-03-24T11:39:47.865Z,101982.83
2019-03-24T11:42:16.339Z,101987.56
2019-03-24T11:44:45.118Z,101988.25
2019-03-24T11:47:13.898Z,101984.52
2019-03-24T11:49:46.239Z,101991.43
2019-03-24T11:52:12.525Z,101992.66
2019-03-24T11:54:41.051Z,101983.05
2019-03-24T11:57:09.564Z,101975.83
2019-03-24T11:59:38.353Z,101969.58
2019-03-24T12:02:06.888Z,101966.07
2019-03-24T12:04:35.370Z,101965.58
2019-03-24T12:07:04.109Z,101960.52
2019-03-24T12:09:32.500Z,101953.24
2019-03-24T12:12:00.879Z,101946.95
2019-03-24T12:14:29.298Z,101941.91
2019-03-24T12:16:57.735Z,101942.66
2019-03-24T12:19:26.128Z,101936.29
2019-03-24T12:21:54.538Z,101932.05
2019-03-24T12:24:23.078Z,101928.45
2019-03-24T12:26:51.706Z,101909.23
2019-03-24T12:29:20.220Z,101917.59
2019-03-24T12:31:49.054Z,101905.85
2019-03-24T12:34:17.735Z,101906.18
2019-03-24T12:36:46.317Z,101905.48
2019-03-24T12:39:14.846Z,101892.56
2019-03-24T12:41:43.308Z,101881.08
2019-03-24T12:44:11.874Z,101877.91
2019-03-24T12:46:40.449Z,101883.03
2019-03-24T12:49:08.792Z,101869.12
2019-03-24T12:51:37.722Z,101867.39
2019-03-24T12:54:06.610Z,101855.56
2019-03-24T12:56:35.325Z,101856.47
2019-03-24T12:59:03.810Z,101855.34
2019-03-24T13:01:32.280Z,101851.98
2019-03-24T13:04:00.814Z,101848.83
2019-03-24T13:06:29.327Z,101834.70
2019-03-24T13:08:57.774Z,101825.95
2019-03-24T13:11:26.424Z,101828.05
2019-03-24T13:13:54.933Z,101819.13
2019-03-24T13:16:23.388Z,101818.56
2019-03-24T13:18:51.851Z,101817.08
2019-03-24T13:21:20.417Z,101814.75
2019-03-24T13:23:49.031Z,101806.57
2019-03-24T13:26:17.548Z,101804.78
2019-03-24T13:28:45.950Z,101806.86
2019-03-24T13:31:14.448Z,101804.34
2019-03-24T13:33:43.247Z,101805.48
2019-03-24T13:39:00.849Z,101799.42
2019-03-24T13:41:29.612Z,101799.80
2019-03-24T13:43:58.470Z,101800.47
2019-03-24T13:46:27.000Z,101799.28
2019-03-24T13:48:55.525Z,101800.02
2019-03-24T13:51:23.910Z,101795.70
2019-03-24T13:53:52.367Z,101791.72
2019-03-24T13:56:20.927Z,101783.70
2019-03-24T13:58:49.355Z,101786.09
2019-03-24T14:01:17.866Z,101782.31
2019-03-24T14:03:46.398Z,101784.33
2019-03-24T14:06:15.071Z,101786.84
2019-03-24T14:08:43.726Z,101786.97
2019-03-24T14:11:12.499Z,101777.25
2019-03-24T14:13:41.122Z,101771.70
2019-03-24T14:16:10.092Z,101765.29
2019-03-24T14:18:38.606Z,101763.27
2019-03-24T14:21:07.280Z,101768.69
2019-03-24T14:23:35.787Z,101768.00
2019-03-24T14:26:04.317Z,101764.61
2019-03-24T14:28:32.831Z,101761.27
2019-03-24T14:31:01.216Z,101766.33
2019-03-24T14:33:29.756Z,101762.34
2019-03-24T14:35:58.274Z,101758.55
2019-03-24T14:38:27.239Z,101761.30
2019-03-24T14:40:55.680Z,101749.02
2019-03-24T14:43:24.142Z,101749.00
2019-03-24T14:45:52.701Z,101749.67
2019-03-24T14:48:21.282Z,101746.98
2019-03-24T14:50:54.833Z,101746.80
2019-03-24T14:53:20.316Z,101748.47
2019-03-24T14:55:48.876Z,101742.45
2019-03-24T14:58:17.419Z,101738.94
2019-03-24T15:01:25.862Z,101737.92
2019-03-24T15:03:54.759Z,101733.91
2019-03-24T15:06:23.258Z,101724.22
2019-03-24T15:08:51.708Z,101730.06
2019-03-24T15:11:20.096Z,101733.27
2019-03-24T15:13:48.638Z,101725.05
2019-03-24T15:16:17.265Z,101724.08
2019-03-24T15:18:46.166Z,101735.13
2019-03-24T15:21:14.614Z,101725.58
2019-03-24T15:23:43.114Z,101732.78
2019-03-24T15:29:18.690Z,101730.44
2019-03-24T15:31:47.197Z,101724.77
2019-03-24T15:34:15.755Z,101724.40
2019-03-24T15:36:44.284Z,101732.78
2019-03-24T15:39:12.747Z,101730.60
2019-03-24T15:41:41.322Z,101721.72
2019-03-24T15:44:09.787Z,101722.36
2019-03-24T15:46:38.427Z,101715.17
2019-03-24T15:49:07.023Z,101712.68
2019-03-24T15:51:35.715Z,101716.03
2019-03-24T15:54:04.242Z,101710.34
2019-03-24T15:56:32.745Z,101705.33
2019-03-24T15:59:01.201Z,101701.97
2019-03-24T16:01:29.667Z,101695.62
2019-03-24T16:03:58.092Z,101692.27
2019-03-24T16:06:26.668Z,101687.94
2019-03-24T16:08:55.196Z,101680.73
2019-03-24T16:11:23.640Z,101683.75
2019-03-24T16:13:52.515Z,101689.75
2019-03-24T16:16:22.926Z,101691.28
2019-03-24T16:18:51.306Z,101687.92
2019-03-24T16:21:27.868Z,101685.25
2019-03-24T16:23:49.926Z,101680.90
2019-03-24T16:26:18.323Z,101680.22
2019-03-24T16:28:46.804Z,101671.52
2019-03-24T16:31:15.326Z,101663.14
2019-03-24T16:33:43.871Z,101667.47
2019-03-24T16:36:52.363Z,101671.80
2019-03-24T16:39:20.888Z,101672.67
2019-03-24T16:41:49.429Z,101664.28
2019-03-24T16:44:17.959Z,101658.09
2019-03-24T16:46:46.447Z,101650.08
2019-03-24T16:49:14.875Z,101653.03
2019-03-24T16:51:43.343Z,101654.02
2019-03-24T16:54:11.762Z,101655.52
2019-03-24T16:56:40.301Z,101661.38
2019-03-24T16:59:09.018Z,101665.01
2019-03-24T17:01:37.704Z,101658.64
2019-03-24T17:04:06.188Z,101656.12
2019-03-24T17:06:34.955Z,101651.23
2019-03-24T17:12:13.986Z,101645.12
2019-03-24T17:15:01.790Z,101644.28
2019-03-24T17:17:30.374Z,101647.25
2019-03-24T17:19:58.760Z,101645.88
2019-03-24T17:22:27.403Z,101649.38
2019-03-24T17:24:56.019Z,101644.67
2019-03-24T17:27:24.775Z,101646.95
2019-03-24T17:30:13.815Z,101645.95
2019-03-24T17:32:44.088Z,101649.61
2019-03-24T17:35:52.539Z,101645.22
2019-03-24T17:38:21.133Z,101640.51
2019-03-24T17:40:49.593Z,101639.97
2019-03-24T17:43:18.103Z,101637.78
2019-03-24T17:45:46.993Z,101636.25
2019-03-24T17:48:15.470Z,101633.37
2019-03-24T17:50:43.995Z,101627.69
2019-03-24T17:53:12.458Z,101628.66
2019-03-24T17:55:40.936Z,101623.31
2019-03-24T17:58:09.387Z,101625.63
2019-03-24T18:01:17.851Z,101630.63
2019-03-24T18:03:49.013Z,101625.93
2019-03-24T18:06:17.593Z,101628.59
2019-03-24T18:08:46.126Z,101618.25
2019-03-24T18:11:14.682Z,101622.70
2019-03-24T18:13:43.125Z,101621.52
2019-03-24T18:16:12.049Z,101625.20
2019-03-24T18:21:29.570Z,101623.87
2019-03-24T18:26:47.652Z,101612.42
2019-03-24T18:29:16.477Z,101600.25
2019-03-24T18:31:45.231Z,101608.90
2019-03-24T18:34:13.713Z,101603.36
2019-03-24T18:36:42.302Z,101605.66
2019-03-24T18:39:10.775Z,101605.64
2019-03-24T18:41:39.530Z,101606.14
2019-03-24T18:44:08.361Z,101603.62
2019-03-24T18:46:36.886Z,101605.59
2019-03-24T18:49:05.380Z,101607.25
2019-03-24T18:51:33.919Z,101602.55
2019-03-24T18:54:02.327Z,101606.84
2019-03-24T18:56:30.820Z,101609.00
2019-03-24T18:58:59.192Z,101605.92
2019-03-24T19:01:27.651Z,101598.11
2019-03-24T19:03:56.123Z,101597.70
2019-03-24T19:06:24.647Z,101593.68
2019-03-24T19:08:53.393Z,101590.66
2019-03-24T19:11:21.907Z,101575.98
2019-03-24T19:13:50.361Z,101575.63
2019-03-24T19:16:18.873Z,101573.61
2019-03-24T19:18:47.384Z,101570.92
2019-03-24T19:21:15.811Z,101569.58
2019-03-24T19:23:44.290Z,101568.48
2019-03-24T19:26:12.852Z,101570.48
2019-03-24T19:28:41.461Z,101572.80
2019-03-24T19:31:10.069Z,101571.76
2019-03-24T19:33:38.829Z,101561.70
2019-03-24T19:36:07.819Z,101565.00
2019-03-24T19:38:36.259Z,101559.65
2019-03-24T19:41:04.731Z,101563.58
2019-03-24T19:43:33.195Z,101563.58
2019-03-24T19:46:01.708Z,101555.84
2019-03-24T19:48:30.440Z,101554.86
2019-03-24T19:50:59.134Z,101549.65
2019-03-24T19:53:27.718Z,101540.80
2019-03-24T19:56:03.105Z,101534.77
2019-03-24T19:58:31.584Z,101537.43
2019-03-24T20:01:00.065Z,101542.91
2019-03-24T20:03:28.647Z,101532.96
2019-03-24T20:05:57.180Z,101529.39
2019-03-24T20:08:25.711Z,101532.81
2019-03-24T20:10:54.462Z,101528.88
2019-03-24T20:13:23.345Z,101522.38
2019-03-24T20:15:52.088Z,101521.92
2019-03-24T20:18:20.871Z,101522.84
2019-03-24T20:20:51.904Z,101526.52
2019-03-24T20:23:19.809Z,101519.38
2019-03-24T20:25:48.527Z,101520.17
2019-03-24T20:28:17.183Z,101514.72
2019-03-24T20:30:45.601Z,101512.82
2019-03-24T20:33:14.001Z,101511.14
2019-03-24T20:35:42.524Z,101499.97
2019-03-24T20:38:10.900Z,101492.48
2019-03-24T20:40:39.376Z,101496.05
2019-03-24T20:43:08.112Z,101492.02
2019-03-24T20:45:36.808Z,101489.11
2019-03-24T20:48:05.441Z,101488.27
2019-03-24T20:50:33.949Z,101495.41
2019-03-24T20:53:05.630Z,101488.83
2019-03-24T20:55:34.411Z,101495.75
2019-03-24T20:58:02.839Z,101492.39
2019-03-24T21:01:11.359Z,101485.34
2019-03-24T21:04:20.437Z,101482.34
2019-03-24T21:06:48.872Z,101477.51
2019-03-24T21:09:17.420Z,101472.02
2019-03-24T21:11:46.217Z,101469.70
2019-03-24T21:14:14.855Z,101471.94
2019-03-24T21:16:43.356Z,101469.41
2019-03-24T21:19:12.116Z,101465.25
2019-03-24T21:21:40.561Z,101463.22
2019-03-24T21:24:09.026Z,101459.85
2019-03-24T21:26:37.721Z,101466.63
2019-03-24T21:29:06.364Z,101467.97
2019-03-24T21:31:34.890Z,101465.48
2019-03-24T21:34:03.506Z,101460.78
2019-03-24T21:36:31.885Z,101458.97
2019-03-24T21:39:00.306Z,101455.75
2019-03-24T21:41:28.741Z,101449.76
2019-03-24T21:43:57.265Z,101452.41
2019-03-24T21:46:25.715Z,101445.42
2019-03-24T21:48:54.180Z,101449.14
2019-03-24T21:51:23.004Z,101441.17
2019-03-24T21:56:46.111Z,101443.48
2019-03-24T21:59:14.552Z,101434.59
2019-03-24T22:02:22.974Z,101437.33
2019-03-24T22:04:51.595Z,101429.98
2019-03-24T22:07:20.087Z,101423.44
2019-03-24T22:10:07.978Z,101420.73
2019-03-24T22:12:36.500Z,101415.91
2019-03-24T22:15:44.968Z,101410.24
2019-03-24T22:18:13.399Z,101402.49
2019-03-24T22:20:48.954Z,101392.00
2019-03-24T22:23:12.212Z,101397.50
2019-03-24T22:25:41.010Z,101395.77
2019-03-24T22:28:09.675Z,101393.74
2019-03-24T22:30:38.277Z,101393.07
2019-03-24T22:33:06.781Z,101386.08
2019-03-24T22:35:35.225Z,101382.67
2019-03-24T22:38:03.741Z,101373.82
2019-03-24T22:40:32.221Z,101378.78
2019-03-24T22:43:00.670Z,101371.52
2019-03-24T22:45:29.496Z,101361.30
2019-03-24T22:47:58.373Z,101367.53
2019-03-24T22:50:27.070Z,101364.47
2019-03-24T22:52:55.684Z,101357.27
2019-03-24T22:55:24.548Z,101358.10
2019-03-24T22:57:53.191Z,101354.76
2019-03-24T23:03:51.809Z,101340.59
2019-03-24T23:06:20.199Z,101338.06
2019-03-24T23:08:48.752Z,101333.95
2019-03-24T23:11:17.231Z,101335.43
2019-03-24T23:13:45.602Z,101332.56
2019-03-24T23:16:14.899Z,101332.92
2019-03-24T23:19:02.541Z,101327.67
2019-03-24T23:21:31.655Z,101325.16
2019-03-24T23:24:00.113Z,101322.91
2019-03-24T23:29:23.452Z,101321.26
2019-03-24T23:31:52.231Z,101321.39
2019-03-24T23:34:20.836Z,101313.91
2019-03-24T23:36:49.399Z,101308.95
2019-03-24T23:39:18.039Z,101304.00
2019-03-24T23:41:46.559Z,101298.29
2019-03-24T23:44:15.180Z,101298.92
2019-03-24T23:46:43.699Z,101294.02
2019-03-24T23:49:12.372Z,101288.77
2019-03-24T23:51:40.986Z,101283.83
2019-03-24T23:54:09.456Z,101286.64
2019-03-24T23:56:38.196Z,101279.86
2019-03-24T23:59:06.673Z,101272.52
